sensor_id;sensor_type;location;lat;lon;timestamp;temperature;humidity
63966;DHT22;50151;52.030;5.350;2024-02-15T12:47:34;14.20;99.90
63966;DHT22;50151;52.030;5.350;2024-02-15T12:50:13;14.40;99.90
63966;DHT22;50151;52.030;5.350;2024-02-15T12:52:41;14.40;99.90
63966;DHT22;50151;52.030;5.350;2024-02-15T12:55:14;14.50;99.90
63966;DHT22;50151;52.030;5.350;2024-02-15T12:57:43;14.60;99.90
63966;DHT22;50151;52.030;5.350;2024-02-15T13:00:23;14.60;99.90
63966;DHT22;50151;52.030;5.350;2024-02-15T13:02:55;14.70;99.90
63966;DHT22;50151;52.030;5.350;2024-02-15T13:05:24;14.70;99.90
63966;DHT22;50151;52.030;5.350;2024-02-15T13:07:52;14.80;99.90
63966;DHT22;50151;52.030;5.350;2024-02-15T13:10:22;14.80;99.90
63966;DHT22;50151;52.030;5.350;2024-02-15T13:12:48;15.10;99.90
63966;DHT22;50151;52.030;5.350;2024-02-15T13:15:16;15.50;99.90
63966;DHT22;50151;52.030;5.350;2024-02-15T13:17:48;15.70;99.90
63966;DHT22;50151;52.030;5.350;2024-02-15T13:20:15;15.70;99.90
63966;DHT22;50151;52.030;5.350;2024-02-15T13:22:42;15.60;99.90
63966;DHT22;50151;52.030;5.350;2024-02-15T13:25:14;15.60;99.90
63966;DHT22;50151;52.030;5.350;2024-02-15T13:27:43;15.50;99.90
63966;DHT22;50151;52.030;5.350;2024-02-15T13:30:10;15.50;99.90
63966;DHT22;50151;52.030;5.350;2024-02-15T13:32:38;15.70;99.90
63966;DHT22;50151;52.030;5.350;2024-02-15T13:35:09;15.90;99.90
63966;DHT22;50151;52.030;5.350;2024-02-15T13:37:47;16.00;99.90
63966;DHT22;50151;52.030;5.350;2024-02-15T13:40:16;16.10;99.90
63966;DHT22;50151;52.030;5.350;2024-02-15T13:42:44;16.20;99.90
63966;DHT22;50151;52.030;5.350;2024-02-15T13:45:16;16.10;99.90
63966;DHT22;50151;52.030;5.350;2024-02-15T13:47:46;16.10;99.90
63966;DHT22;50151;52.030;5.350;2024-02-15T13:50:14;16.30;99.90
63966;DHT22;50151;52.030;5.350;2024-02-15T13:52:42;16.60;99.90
63966;DHT22;50151;52.030;5.350;2024-02-15T13:55:14;16.70;99.90
63966;DHT22;50151;52.030;5.350;2024-02-15T13:57:45;16.60;99.90
63966;DHT22;50151;52.030;5.350;2024-02-15T14:00:16;16.70;99.90
63966;DHT22;50151;52.030;5.350;2024-02-15T14:02:54;16.70;99.90
63966;DHT22;50151;52.030;5.350;2024-02-15T14:05:25;16.60;99.90
63966;DHT22;50151;52.030;5.350;2024-02-15T14:07:56;16.60;99.90
63966;DHT22;50151;52.030;5.350;2024-02-15T14:10:24;16.80;99.90
63966;DHT22;50151;52.030;5.350;2024-02-15T14:12:53;16.90;99.90
63966;DHT22;50151;52.030;5.350;2024-02-15T14:15:32;17.00;99.90
63966;DHT22;50151;52.030;5.350;2024-02-15T14:18:10;17.10;99.90
63966;DHT22;50151;52.030;5.350;2024-02-15T14:20:41;17.30;99.90
63966;DHT22;50151;52.030;5.350;2024-02-15T14:23:09;17.30;99.90
63966;DHT22;50151;52.030;5.350;2024-02-15T14:25:41;17.30;99.90
63966;DHT22;50151;52.030;5.350;2024-02-15T14:28:07;17.10;99.90
63966;DHT22;50151;52.030;5.350;2024-02-15T14:30:35;16.80;99.90
63966;DHT22;50151;52.030;5.350;2024-02-15T14:33:21;16.80;99.90
63966;DHT22;50151;52.030;5.350;2024-02-15T14:35:50;16.60;99.90
63966;DHT22;50151;52.030;5.350;2024-02-15T14:38:20;16.50;99.90
63966;DHT22;50151;52.030;5.350;2024-02-15T14:40:49;16.50;99.90
63966;DHT22;50151;52.030;5.350;2024-02-15T14:43:23;16.40;99.90
63966;DHT22;50151;52.030;5.350;2024-02-15T14:45:52;16.40;99.90
63966;DHT22;50151;52.030;5.350;2024-02-15T14:48:20;16.40;99.90
63966;DHT22;50151;52.030;5.350;2024-02-15T14:50:48;16.30;99.90
63966;DHT22;50151;52.030;5.350;2024-02-15T14:53:18;16.30;99.90
63966;DHT22;50151;52.030;5.350;2024-02-15T14:55:45;16.30;99.90
63966;DHT22;50151;52.030;5.350;2024-02-15T14:58:15;16.30;99.90
63966;DHT22;50151;52.030;5.350;2024-02-15T15:00:44;16.20;99.90
63966;DHT22;50151;52.030;5.350;2024-02-15T15:03:13;16.10;99.90
63966;DHT22;50151;52.030;5.350;2024-02-15T15:05:41;16.10;99.90
63966;DHT22;50151;52.030;5.350;2024-02-15T15:08:27;16.00;99.90
63966;DHT22;50151;52.030;5.350;2024-02-15T15:11:12;16.10;99.90
63966;DHT22;50151;52.030;5.350;2024-02-15T15:13:58;15.90;99.90
63966;DHT22;50151;52.030;5.350;2024-02-15T15:16:25;15.90;99.90
63966;DHT22;50151;52.030;5.350;2024-02-15T15:18:53;15.90;99.90
63966;DHT22;50151;52.030;5.350;2024-02-15T15:21:20;15.80;99.90
63966;DHT22;50151;52.030;5.350;2024-02-15T15:23:49;15.80;99.90
63966;DHT22;50151;52.030;5.350;2024-02-15T15:26:20;15.80;99.90
63966;DHT22;50151;52.030;5.350;2024-02-15T15:28:48;15.80;99.90
63966;DHT22;50151;52.030;5.350;2024-02-15T15:31:15;15.80;99.90
63966;DHT22;50151;52.030;5.350;2024-02-15T15:33:42;15.80;99.90
63966;DHT22;50151;52.030;5.350;2024-02-15T15:36:10;15.70;99.90
63966;DHT22;50151;52.030;5.350;2024-02-15T15:38:39;15.70;99.90
63966;DHT22;50151;52.030;5.350;2024-02-15T15:41:07;15.70;99.90
63966;DHT22;50151;52.030;5.350;2024-02-15T15:43:36;15.70;99.90
63966;DHT22;50151;52.030;5.350;2024-02-15T15:46:04;15.60;99.90
63966;DHT22;50151;52.030;5.350;2024-02-15T15:48:31;15.50;99.90
63966;DHT22;50151;52.030;5.350;2024-02-15T15:51:00;15.50;99.90
63966;DHT22;50151;52.030;5.350;2024-02-15T15:53:28;15.50;99.90
63966;DHT22;50151;52.030;5.350;2024-02-15T15:55:54;15.40;99.90
63966;DHT22;50151;52.030;5.350;2024-02-15T15:58:23;15.40;99.90
63966;DHT22;50151;52.030;5.350;2024-02-15T16:00:50;15.40;99.90
63966;DHT22;50151;52.030;5.350;2024-02-15T16:03:17;15.40;99.90
63966;DHT22;50151;52.030;5.350;2024-02-15T16:05:49;15.30;99.90
63966;DHT22;50151;52.030;5.350;2024-02-15T16:08:16;15.30;99.90
63966;DHT22;50151;52.030;5.350;2024-02-15T16:10:43;15.30;99.90
63966;DHT22;50151;52.030;5.350;2024-02-15T16:13:11;15.20;99.90
63966;DHT22;50151;52.030;5.350;2024-02-15T16:15:38;15.20;99.90
63966;DHT22;50151;52.030;5.350;2024-02-15T16:18:06;15.10;99.90
63966;DHT22;50151;52.030;5.350;2024-02-15T16:20:34;15.10;99.90
63966;DHT22;50151;52.030;5.350;2024-02-15T16:23:00;15.10;99.90
63966;DHT22;50151;52.030;5.350;2024-02-15T16:25:28;15.00;99.90
63966;DHT22;50151;52.030;5.350;2024-02-15T16:27:55;14.90;99.90
63966;DHT22;50151;52.030;5.350;2024-02-15T16:30:22;14.90;99.90
63966;DHT22;50151;52.030;5.350;2024-02-15T16:32:49;14.90;99.90
63966;DHT22;50151;52.030;5.350;2024-02-15T16:35:17;14.80;99.90
63966;DHT22;50151;52.030;5.350;2024-02-15T16:37:47;14.80;99.90
63966;DHT22;50151;52.030;5.350;2024-02-15T16:40:13;14.80;99.90
63966;DHT22;50151;52.030;5.350;2024-02-15T16:42:44;14.70;99.90
63966;DHT22;50151;52.030;5.350;2024-02-15T16:45:15;14.70;99.90
63966;DHT22;50151;52.030;5.350;2024-02-15T16:47:47;14.60;99.90
63966;DHT22;50151;52.030;5.350;2024-02-15T16:50:23;14.70;99.90
63966;DHT22;50151;52.030;5.350;2024-02-15T16:52:50;14.60;99.90
63966;DHT22;50151;52.030;5.350;2024-02-15T16:55:18;14.60;99.90
63966;DHT22;50151;52.030;5.350;2024-02-15T16:57:54;14.60;99.90
63966;DHT22;50151;52.030;5.350;2024-02-15T17:00:31;14.50;99.90
63966;DHT22;50151;52.030;5.350;2024-02-15T17:02:58;14.50;99.90
63966;DHT22;50151;52.030;5.350;2024-02-15T17:05:26;14.50;99.90
63966;DHT22;50151;52.030;5.350;2024-02-15T17:07:54;14.40;99.90
63966;DHT22;50151;52.030;5.350;2024-02-15T17:10:23;14.40;99.90
63966;DHT22;50151;52.030;5.350;2024-02-15T17:12:51;14.40;99.90
63966;DHT22;50151;52.030;5.350;2024-02-15T17:15:22;14.30;99.90
63966;DHT22;50151;52.030;5.350;2024-02-15T17:17:54;14.30;99.90
63966;DHT22;50151;52.030;5.350;2024-02-15T17:20:22;14.20;99.90
63966;DHT22;50151;52.030;5.350;2024-02-15T17:22:50;14.20;99.90
63966;DHT22;50151;52.030;5.350;2024-02-15T17:25:18;14.20;99.90
63966;DHT22;50151;52.030;5.350;2024-02-15T17:27:48;14.10;99.90
63966;DHT22;50151;52.030;5.350;2024-02-15T17:30:16;14.10;99.90
63966;DHT22;50151;52.030;5.350;2024-02-15T17:32:44;14.00;99.90
63966;DHT22;50151;52.030;5.350;2024-02-15T17:35:11;14.00;99.90
63966;DHT22;50151;52.030;5.350;2024-02-15T17:37:41;14.00;99.90
63966;DHT22;50151;52.030;5.350;2024-02-15T17:40:09;13.90;99.90
63966;DHT22;50151;52.030;5.350;2024-02-15T17:42:39;13.90;99.90
63966;DHT22;50151;52.030;5.350;2024-02-15T17:45:09;13.90;99.90
63966;DHT22;50151;52.030;5.350;2024-02-15T17:47:37;13.80;99.90
63966;DHT22;50151;52.030;5.350;2024-02-15T17:50:09;13.80;99.90
63966;DHT22;50151;52.030;5.350;2024-02-15T17:52:37;13.80;99.90
63966;DHT22;50151;52.030;5.350;2024-02-15T17:55:04;13.80;99.90
63966;DHT22;50151;52.030;5.350;2024-02-15T17:57:38;13.70;99.90
63966;DHT22;50151;52.030;5.350;2024-02-15T18:00:06;13.70;99.90
63966;DHT22;50151;52.030;5.350;2024-02-15T18:02:39;13.70;99.90
63966;DHT22;50151;52.030;5.350;2024-02-15T18:05:08;13.60;99.90
63966;DHT22;50151;52.030;5.350;2024-02-15T18:07:38;13.60;99.90
63966;DHT22;50151;52.030;5.350;2024-02-15T18:10:05;13.50;99.90
63966;DHT22;50151;52.030;5.350;2024-02-15T18:12:39;13.50;99.90
63966;DHT22;50151;52.030;5.350;2024-02-15T18:15:09;13.50;99.90
63966;DHT22;50151;52.030;5.350;2024-02-15T18:17:45;13.40;99.90
63966;DHT22;50151;52.030;5.350;2024-02-15T18:20:13;13.40;99.90
63966;DHT22;50151;52.030;5.350;2024-02-15T18:22:41;13.30;99.90
63966;DHT22;50151;52.030;5.350;2024-02-15T18:25:11;13.30;99.90
63966;DHT22;50151;52.030;5.350;2024-02-15T18:27:37;13.30;99.90
63966;DHT22;50151;52.030;5.350;2024-02-15T18:30:05;13.20;99.90
63966;DHT22;50151;52.030;5.350;2024-02-15T18:32:39;13.10;99.90
63966;DHT22;50151;52.030;5.350;2024-02-15T18:35:10;13.20;99.90
63966;DHT22;50151;52.030;5.350;2024-02-15T18:37:41;13.20;99.90
63966;DHT22;50151;52.030;5.350;2024-02-15T18:40:09;13.10;99.90
63966;DHT22;50151;52.030;5.350;2024-02-15T18:42:50;13.10;99.90
63966;DHT22;50151;52.030;5.350;2024-02-15T18:45:16;13.10;99.90
63966;DHT22;50151;52.030;5.350;2024-02-15T18:47:44;13.10;99.90
63966;DHT22;50151;52.030;5.350;2024-02-15T18:50:11;13.00;99.90
63966;DHT22;50151;52.030;5.350;2024-02-15T18:52:37;13.00;99.90
63966;DHT22;50151;52.030;5.350;2024-02-15T18:55:06;13.00;99.90
63966;DHT22;50151;52.030;5.350;2024-02-15T18:57:32;13.00;99.90
63966;DHT22;50151;52.030;5.350;2024-02-15T19:00:00;13.00;99.90
63966;DHT22;50151;52.030;5.350;2024-02-15T19:02:47;13.00;99.90
63966;DHT22;50151;52.030;5.350;2024-02-15T19:05:14;13.00;99.90
63966;DHT22;50151;52.030;5.350;2024-02-15T19:07:41;13.00;99.90
63966;DHT22;50151;52.030;5.350;2024-02-15T19:10:08;12.90;99.90
63966;DHT22;50151;52.030;5.350;2024-02-15T19:12:35;12.90;99.90
63966;DHT22;50151;52.030;5.350;2024-02-15T19:15:03;12.90;99.90
63966;DHT22;50151;52.030;5.350;2024-02-15T19:17:34;12.80;99.90
63966;DHT22;50151;52.030;5.350;2024-02-15T19:20:01;12.80;99.90
63966;DHT22;50151;52.030;5.350;2024-02-15T19:22:27;12.80;99.90
63966;DHT22;50151;52.030;5.350;2024-02-15T19:24:55;12.70;99.90
63966;DHT22;50151;52.030;5.350;2024-02-15T19:27:23;12.70;99.90
63966;DHT22;50151;52.030;5.350;2024-02-15T19:29:49;12.70;99.90
63966;DHT22;50151;52.030;5.350;2024-02-15T19:32:17;12.70;99.90
63966;DHT22;50151;52.030;5.350;2024-02-15T19:34:44;12.70;99.90
63966;DHT22;50151;52.030;5.350;2024-02-15T19:37:11;12.70;99.90
63966;DHT22;50151;52.030;5.350;2024-02-15T19:39:41;12.70;99.90
63966;DHT22;50151;52.030;5.350;2024-02-15T19:42:08;12.60;99.90
63966;DHT22;50151;52.030;5.350;2024-02-15T19:44:36;12.60;99.90
63966;DHT22;50151;52.030;5.350;2024-02-15T19:47:03;12.50;99.90
63966;DHT22;50151;52.030;5.350;2024-02-15T19:49:32;12.60;99.90
63966;DHT22;50151;52.030;5.350;2024-02-15T19:52:01;12.50;99.90
63966;DHT22;50151;52.030;5.350;2024-02-15T19:54:31;12.50;99.90
63966;DHT22;50151;52.030;5.350;2024-02-15T19:57:01;12.50;99.90
63966;DHT22;50151;52.030;5.350;2024-02-15T19:59:29;12.50;99.90
63966;DHT22;50151;52.030;5.350;2024-02-15T20:01:56;12.50;99.90
63966;DHT22;50151;52.030;5.350;2024-02-15T20:04:23;12.50;99.90
63966;DHT22;50151;52.030;5.350;2024-02-15T20:06:53;12.40;99.90
63966;DHT22;50151;52.030;5.350;2024-02-15T20:09:20;12.40;99.90
63966;DHT22;50151;52.030;5.350;2024-02-15T20:11:58;12.40;99.90
63966;DHT22;50151;52.030;5.350;2024-02-15T20:14:25;12.40;99.90
63966;DHT22;50151;52.030;5.350;2024-02-15T20:16:55;12.30;99.90
63966;DHT22;50151;52.030;5.350;2024-02-15T20:19:23;12.30;99.90
63966;DHT22;50151;52.030;5.350;2024-02-15T20:21:52;12.30;99.90
63966;DHT22;50151;52.030;5.350;2024-02-15T20:24:21;12.30;99.90
63966;DHT22;50151;52.030;5.350;2024-02-15T20:26:48;12.30;99.90
63966;DHT22;50151;52.030;5.350;2024-02-15T20:29:18;12.30;99.90
63966;DHT22;50151;52.030;5.350;2024-02-15T20:31:46;12.30;99.90
63966;DHT22;50151;52.030;5.350;2024-02-15T20:34:14;12.20;99.90
63966;DHT22;50151;52.030;5.350;2024-02-15T20:36:41;12.20;99.90
63966;DHT22;50151;52.030;5.350;2024-02-15T20:39:08;12.20;99.90
63966;DHT22;50151;52.030;5.350;2024-02-15T20:41:37;12.20;99.90
63966;DHT22;50151;52.030;5.350;2024-02-15T20:44:04;12.20;99.90
63966;DHT22;50151;52.030;5.350;2024-02-15T20:46:31;12.20;99.90
63966;DHT22;50151;52.030;5.350;2024-02-15T20:48:59;12.20;99.90
63966;DHT22;50151;52.030;5.350;2024-02-15T20:51:26;12.20;99.90
63966;DHT22;50151;52.030;5.350;2024-02-15T20:53:53;12.20;99.90
63966;DHT22;50151;52.030;5.350;2024-02-15T20:56:21;12.10;99.90
63966;DHT22;50151;52.030;5.350;2024-02-15T20:58:49;12.10;99.90
63966;DHT22;50151;52.030;5.350;2024-02-15T21:01:17;12.10;99.90
63966;DHT22;50151;52.030;5.350;2024-02-15T21:03:45;12.10;99.90
63966;DHT22;50151;52.030;5.350;2024-02-15T21:06:22;12.10;99.90
63966;DHT22;50151;52.030;5.350;2024-02-15T21:08:50;12.10;99.90
63966;DHT22;50151;52.030;5.350;2024-02-15T21:11:19;12.00;99.90
63966;DHT22;50151;52.030;5.350;2024-02-15T21:13:47;12.00;99.90
63966;DHT22;50151;52.030;5.350;2024-02-15T21:16:18;12.00;99.90
63966;DHT22;50151;52.030;5.350;2024-02-15T21:18:49;12.00;99.90
63966;DHT22;50151;52.030;5.350;2024-02-15T21:21:16;12.00;99.90
63966;DHT22;50151;52.030;5.350;2024-02-15T21:23:44;12.00;99.90
63966;DHT22;50151;52.030;5.350;2024-02-15T21:26:11;11.90;99.90
63966;DHT22;50151;52.030;5.350;2024-02-15T21:28:38;11.90;99.90
63966;DHT22;50151;52.030;5.350;2024-02-15T21:31:10;11.90;99.90
63966;DHT22;50151;52.030;5.350;2024-02-15T21:33:44;11.90;99.90
63966;DHT22;50151;52.030;5.350;2024-02-15T21:36:12;11.80;99.90
63966;DHT22;50151;52.030;5.350;2024-02-15T21:38:39;11.80;99.90
63966;DHT22;50151;52.030;5.350;2024-02-15T21:41:06;11.80;99.90
63966;DHT22;50151;52.030;5.350;2024-02-15T21:43:34;11.80;99.90
63966;DHT22;50151;52.030;5.350;2024-02-15T21:46:01;11.70;99.90
63966;DHT22;50151;52.030;5.350;2024-02-15T21:48:29;11.70;99.90
63966;DHT22;50151;52.030;5.350;2024-02-15T21:50:57;11.60;99.90
63966;DHT22;50151;52.030;5.350;2024-02-15T21:53:24;11.60;99.90
63966;DHT22;50151;52.030;5.350;2024-02-15T21:55:51;11.60;99.90
63966;DHT22;50151;52.030;5.350;2024-02-15T21:58:17;11.70;99.90
63966;DHT22;50151;52.030;5.350;2024-02-15T22:00:44;11.60;99.90
63966;DHT22;50151;52.030;5.350;2024-02-15T22:03:11;11.60;99.90
63966;DHT22;50151;52.030;5.350;2024-02-15T22:05:39;11.60;99.90
63966;DHT22;50151;52.030;5.350;2024-02-15T22:08:10;11.60;99.90
63966;DHT22;50151;52.030;5.350;2024-02-15T22:10:40;11.60;99.90
63966;DHT22;50151;52.030;5.350;2024-02-15T22:13:08;11.70;99.90
63966;DHT22;50151;52.030;5.350;2024-02-15T22:15:35;11.70;99.90
63966;DHT22;50151;52.030;5.350;2024-02-15T22:18:05;11.70;99.90
63966;DHT22;50151;52.030;5.350;2024-02-15T22:20:33;11.70;99.90
63966;DHT22;50151;52.030;5.350;2024-02-15T22:23:01;11.70;99.90
63966;DHT22;50151;52.030;5.350;2024-02-15T22:25:30;11.70;99.90
63966;DHT22;50151;52.030;5.350;2024-02-15T22:27:57;11.70;99.90
63966;DHT22;50151;52.030;5.350;2024-02-15T22:30:24;11.70;99.90
